Aviation Digital Data Service (ADDS)

Output produced by METARs form (0943 UTC 28 September 2021)
found at http://www.aviationweather.gov/metar/data/
 
VTBU 280930Z 24007KT 200V280 9999 FEW020 31/25 Q1006 NOSIG
VTBU 280900Z 29006KT 260V340 9999 FEW020 31/25 Q1006 NOSIG
VTBU 280830Z 31005KT 9999 FEW020 30/25 Q1007 NOSIG
VTBU 280800Z 19005KT 9999 FEW020 31/23 Q1007 NOSIG
VTBU 280730Z 19006KT 160V220 9999 FEW020 32/24 Q1007 NOSIG
VTBU 280700Z 19006KT 150V220 9999 FEW020 32/23 Q1008 NOSIG
VTBU 280630Z 17006KT 130V200 9999 FEW020 31/24 Q1009 NOSIG
VTBU 280600Z 19006KT 150V220 9999 FEW020 31/24 Q1009 NOSIG
VTBU 280530Z 18008KT 9999 FEW020 31/24 Q1009 NOSIG
VTBU 280500Z 15006KT 110V190 9999 FEW020 31/25 Q1010 NOSIG
VTBU 280430Z 15006KT 120V190 9999 FEW020 31/24 Q1010 NOSIG
VTBU 280400Z 15006KT 110V190 9999 FEW020 31/24 Q1010 NOSIG
VTBU 280330Z 22003KT 9999 FEW020 31/25 Q1010 NOSIG
VTBU 280300Z 24003KT 9999 FEW020 30/24 Q1011 NOSIG
VTBU 280230Z VRB02KT 9999 FEW020 30/24 Q1011 NOSIG
VTBU 280200Z VRB02KT 9999 FEW020 30/24 Q1011 NOSIG
VTBU 280130Z 00000KT 9999 FEW020 30/25 Q1011 NOSIG
VTBU 280100Z 00000KT 9999 FEW020 28/25 Q1010 NOSIG
VTBU 280030Z 36003KT 9999 FEW020 27/24 Q1010 NOSIG
VTBU 280000Z 36004KT 9999 FEW020 26/24 Q1010 NOSIG
VTBU 272330Z 35004KT 9999 FEW020 26/24 Q1009 NOSIG
VTBU 272300Z 35004KT 9999 FEW020 26/23 Q1009 NOSIG
VTBU 272230Z 36003KT 9999 FEW020 26/23 Q1009 NOSIG
VTBU 272200Z 36004KT 9999 FEW020 26/24 Q1009 NOSIG
VTBU 272130Z 36005KT 9999 FEW020 26/24 Q1008 NOSIG
VTBU 272100Z 35004KT 9999 FEW020 26/24 Q1008 NOSIG
VTBU 272030Z 33004KT 9999 FEW020 26/24 Q1008 NOSIG
VTBU 272000Z VRB02KT 9999 FEW020 26/24 Q1008 NOSIG
VTBU 271930Z 36003KT 9999 FEW020 26/24 Q1008 NOSIG
VTBU 271900Z 36003KT 9999 FEW020 26/24 Q1009 NOSIG
VTBU 271830Z 36004KT 9999 FEW020 26/24 Q1009 NOSIG
VTBU 271800Z VRB02KT 9999 FEW020 26/25 Q1009 NOSIG
VTBU 271730Z 34003KT 9999 FEW020 26/25 Q1010 NOSIG
VTBU 271700Z 33003KT 9999 FEW020 26/25 Q1010 NOSIG
VTBU 271630Z 35004KT 9999 FEW020 26/25 Q1010 NOSIG
VTBU 271600Z 35005KT 9999 FEW020 26/25 Q1010 NOSIG
VTBU 271530Z 35005KT 9999 FEW020 26/26 Q1010 NOSIG
VTBU 271500Z 33003KT 9999 FEW020 26/26 Q1010 NOSIG
VTBU 271430Z 34003KT 9999 FEW020 27/26 Q1010 NOSIG
VTBU 271400Z 36003KT 9999 FEW020 26/26 Q1010 NOSIG
VTBU 271330Z 01004KT 9999 FEW020 27/26 Q1009 NOSIG
VTBU 271300Z 01003KT 9999 FEW020 27/26 Q1009 NOSIG
VTBU 271230Z 05003KT 9999 FEW020 27/26 Q1009 NOSIG
VTBU 271200Z 00000KT 9999 FEW020 27/26 Q1008 NOSIG
VTBU 271130Z 00000KT 9999 FEW020 28/25 Q1007 NOSIG
VTBU 271100Z VRB02KT 9999 FEW020 28/25 Q1007 NOSIG
VTBU 271030Z 00000KT 9999 FEW020 29/25 Q1007 NOSIG
VTBU 271000Z 16003KT 9999 FEW020 29/25 Q1007 NOSIG
TAF VTBU 280500Z 2806/2906 18008KT 9999 FEW020 
     BECMG 2813/2815 35004KT 
     BECMG 2902/2904 19008KT